Airfield :
LOGIN :

Register | Disclaimer

   EN    FR    IT 

 










Legend :    VFR   Marginal VFR   IFR   Intensive IFR   Very Intensive IFR
Visi :
Ceiling :
>= 8 km
>= 3000ft
5 to 8 km
1000 to 3000 ft
1500m to 5 km
500 to 1000 ft
800 to 1500m
200 to 500 ft
< 800m
< 200 ft
Symbols :   Thunderstorms  Fog  Heavy snow  Heavy precipitations  Wind > 20 kt
SIGMETs :     Misc.  Thunderstorms  Icing  Turbulence  Mountain Waves  Volcanic Ashes






- Airport Elevation : 2100 ft


LOXA - Fiala-Fernbrugg Air Base

METAR N/A
TAF TAF LOXA
Valid from the 19 at 12:00 until the 19 at 21:00 UTC


191115Z 1912/1921 VRB03KT 9999 FEW060 SCT120 BKN200
BECMG 1912/1914 24008KT FEW030 BKN060
TEMPO 1913/1916 24010G30KT 4000 SHRA FEW020 SCT030TCU BKN040
TEMPO 1915/1921 24010G25KT 1000 SHSN FEW010 SCT020TCU BKN030



MET'MAP, your aeronautical weather chart ! - Copyright ORBIFLY December 2007 - Disclaimer

ORBIFLY MET'MAP TEAM :

Programming & Development : Alexandra Zaïnal
Concept & original design : Baudouin d'Aumeries
Assistance for programming : Marc-Olivier Méhu
Technical & hardware support : Manuel Goepfert

Contact : metmap@orbifly.com




SOURCES & CREDITS :

   NOAA